Time;durP1;ratioP1;P1;durP2;ratioP2;P2;SDS_P1;SDS_P2;PMS_P1;PMS_P2;Temp;Humidity;BMP_temperature;BMP_pressure;BME280_temperature;BME280_humidity;BME280_pressure;Samples;Min_cycle;Max_cycle;Signal;HPM_P1;HPM_P2
2021/01/01 00:00:15;;;;;;;85.23;53.23;;;5.90;89.50;;;;;;5054090;28;20111;-79
2021/01/01 00:02:42;;;;;;;79.00;50.47;;;5.90;89.20;;;;;;5054488;28;20162;-78
2021/01/01 00:05:08;;;;;;;83.23;51.87;;;5.80;88.90;;;;;;5043022;28;20059;-77
2021/01/01 00:07:34;;;;;;;87.50;54.97;;;5.70;88.30;;;;;;5064097;28;20021;-78
2021/01/01 00:10:00;;;;;;;97.83;60.73;;;5.70;88.40;;;;;;5054531;28;20024;-78
2021/01/01 00:12:26;;;;;;;87.73;55.37;;;5.70;89.00;;;;;;5053996;28;20131;-78
2021/01/01 00:14:52;;;;;;;82.47;51.50;;;5.80;89.50;;;;;;5054056;28;20463;-78
2021/01/01 00:17:18;;;;;;;81.37;52.27;;;5.80;88.90;;;;;;5070673;28;20158;-78
2021/01/01 00:19:43;;;;;;;89.10;57.17;;;5.70;88.00;;;;;;5071521;28;20036;-75
2021/01/01 00:22:11;;;;;;;96.73;57.80;;;5.60;87.90;;;;;;5071642;28;20107;-75
2021/01/01 00:24:37;;;;;;;85.97;53.70;;;5.50;88.20;;;;;;5057449;28;20028;-75
2021/01/01 00:27:04;;;;;;;96.80;61.70;;;5.60;88.30;;;;;;5071866;28;20074;-76
2021/01/01 00:29:30;;;;;;;98.23;61.07;;;5.50;88.40;;;;;;5053308;28;20137;-75
2021/01/01 00:31:55;;;;;;;95.97;60.97;;;5.60;88.80;;;;;;5053800;28;20490;-76
2021/01/01 00:34:21;;;;;;;91.03;57.53;;;5.70;88.90;;;;;;5069423;28;20481;-76
2021/01/01 00:36:46;;;;;;;98.53;62.00;;;5.60;88.30;;;;;;5054279;28;20036;-76
2021/01/01 00:39:12;;;;;;;99.17;61.43;;;5.60;88.60;;;;;;5053441;28;20033;-78
2021/01/01 00:41:39;;;;;;;91.50;58.10;;;5.60;88.60;;;;;;5071272;28;20031;-76
2021/01/01 00:44:04;;;;;;;88.20;55.53;;;5.60;88.40;;;;;;5072045;28;20055;-76
2021/01/01 00:46:32;;;;;;;88.23;56.43;;;5.60;88.10;;;;;;5052235;28;20056;-75
2021/01/01 00:48:59;;;;;;;97.40;60.33;;;5.50;88.00;;;;;;5070445;28;20033;-76
2021/01/01 00:51:32;;;;;;;93.37;58.20;;;5.60;88.60;;;;;;5069663;28;20020;-76
2021/01/01 00:53:59;;;;;;;88.57;57.15;;;5.60;88.70;;;;;;5056323;28;20151;-75
2021/01/01 00:56:26;;;;;;;86.00;54.77;;;5.60;88.20;;;;;;5070868;28;20027;-76
2021/01/01 00:58:53;;;;;;;87.67;54.63;;;5.60;87.80;;;;;;5071794;28;20052;-76
2021/01/01 01:01:28;;;;;;;92.77;59.03;;;5.60;87.40;;;;;;5052938;28;20071;-77
2021/01/01 01:03:57;;;;;;;87.77;55.87;;;5.60;87.80;;;;;;5034018;28;20465;-76
2021/01/01 01:06:25;;;;;;;75.17;49.90;;;5.60;87.60;;;;;;5050614;28;20025;-77
2021/01/01 01:08:51;;;;;;;84.53;53.83;;;5.60;87.10;;;;;;5051479;28;20115;-76
2021/01/01 01:11:25;;;;;;;88.13;56.23;;;5.50;87.00;;;;;;5051007;28;20112;-78
2021/01/01 01:13:52;;;;;;;87.03;56.37;;;5.50;86.90;;;;;;5070676;28;20028;-76
2021/01/01 01:16:29;;;;;;;92.37;58.30;;;5.50;87.50;;;;;;5070792;28;20024;-78
2021/01/01 01:18:56;;;;;;;92.57;57.20;;;5.60;87.70;;;;;;5071306;28;20024;-77
2021/01/01 01:21:24;;;;;;;90.50;54.90;;;5.60;87.70;;;;;;5070065;28;20028;-76
2021/01/01 01:23:50;;;;;;;92.20;57.07;;;5.70;87.40;;;;;;5071688;28;20116;-76
2021/01/01 01:26:16;;;;;;;81.63;52.83;;;5.70;87.40;;;;;;5070711;28;20457;-77
2021/01/01 01:28:42;;;;;;;83.03;52.87;;;5.70;87.20;;;;;;5071676;28;20025;-76
2021/01/01 01:31:07;;;;;;;81.20;52.60;;;5.70;87.00;;;;;;5069938;28;20089;-77
2021/01/01 01:33:33;;;;;;;82.20;52.93;;;5.70;87.00;;;;;;5038902;28;20040;-77
2021/01/01 01:36:00;;;;;;;84.03;52.27;;;5.60;86.90;;;;;;5052443;28;20033;-77
2021/01/01 01:38:26;;;;;;;77.87;51.13;;;5.60;87.00;;;;;;5068464;28;20024;-77
2021/01/01 01:40:52;;;;;;;82.53;52.40;;;5.60;86.90;;;;;;5070676;28;20028;-77
2021/01/01 01:43:19;;;;;;;84.03;52.90;;;5.60;86.60;;;;;;5062728;28;20082;-76
2021/01/01 01:45:44;;;;;;;75.23;50.30;;;5.50;86.70;;;;;;5066589;28;20032;-77
2021/01/01 01:48:15;;;;;;;86.40;53.13;;;5.50;86.80;;;;;;5052262;28;20461;-77
2021/01/01 01:50:41;;;;;;;85.57;54.43;;;5.50;87.00;;;;;;5069832;28;20119;-76
2021/01/01 01:53:07;;;;;;;80.07;50.67;;;5.50;87.10;;;;;;5060183;28;20389;-76
2021/01/01 01:55:33;;;;;;;87.80;54.43;;;5.50;86.70;;;;;;5050768;28;20063;-76
2021/01/01 01:58:01;;;;;;;87.77;54.53;;;5.50;86.70;;;;;;5053039;28;20119;-77
2021/01/01 02:02:54;;;;;;;87.70;54.57;;;5.60;87.00;;;;;;5074289;28;20128;-77
2021/01/01 02:05:19;;;;;;;87.30;54.93;;;5.60;86.60;;;;;;5073676;28;20545;-76
2021/01/01 02:07:46;;;;;;;82.27;52.97;;;5.60;86.70;;;;;;5072596;28;20103;-77
2021/01/01 02:10:12;;;;;;;88.00;54.20;;;5.60;86.70;;;;;;5074095;28;20460;-77
2021/01/01 02:12:38;;;;;;;84.77;54.30;;;5.60;86.70;;;;;;5038149;28;20029;-77
2021/01/01 02:15:05;;;;;;;81.10;52.17;;;5.70;86.50;;;;;;5055860;28;20472;-77
2021/01/01 02:17:30;;;;;;;81.90;53.23;;;5.60;86.00;;;;;;5054895;28;20060;-76
2021/01/01 02:20:10;;;;;;;86.27;54.80;;;5.60;86.00;;;;;;5065401;28;20060;-76
2021/01/01 02:22:39;;;;;;;87.63;56.60;;;5.50;85.80;;;;;;5072656;28;20040;-77
2021/01/01 02:25:09;;;;;;;87.73;55.77;;;5.40;85.80;;;;;;5073531;28;20066;-77
2021/01/01 02:27:35;;;;;;;88.50;56.37;;;5.40;85.50;;;;;;5054507;28;20439;-76
2021/01/01 02:30:01;;;;;;;94.93;57.80;;;5.30;85.50;;;;;;5073401;28;20116;-77
2021/01/01 02:32:27;;;;;;;88.00;54.53;;;5.30;85.70;;;;;;5072599;28;20476;-77
2021/01/01 02:34:53;;;;;;;92.23;56.70;;;5.20;85.70;;;;;;5039084;28;20078;-77
2021/01/01 02:37:18;;;;;;;90.97;57.40;;;5.20;86.40;;;;;;5070555;28;20033;-77
2021/01/01 02:39:44;;;;;;;86.50;56.43;;;5.20;86.20;;;;;;5055591;28;20376;-76
2021/01/01 02:42:09;;;;;;;91.17;58.13;;;5.20;86.30;;;;;;5054371;28;20033;-78
2021/01/01 02:44:35;;;;;;;93.77;57.70;;;5.20;86.60;;;;;;5054238;28;20483;-78
2021/01/01 02:47:02;;;;;;;105.17;65.07;;;5.30;86.60;;;;;;5056828;28;20029;-76
2021/01/01 02:49:28;;;;;;;104.37;68.07;;;5.20;86.70;;;;;;5072307;28;20091;-75
2021/01/01 02:51:54;;;;;;;103.97;66.87;;;5.30;87.10;;;;;;5054454;28;20110;-76
2021/01/01 02:54:19;;;;;;;106.00;65.73;;;5.30;87.10;;;;;;5054758;28;20166;-78
2021/01/01 02:56:45;;;;;;;104.43;63.80;;;5.40;87.10;;;;;;5072853;28;20071;-78
2021/01/01 02:59:11;;;;;;;96.77;61.07;;;5.40;87.20;;;;;;5070389;28;20039;-78
2021/01/01 03:01:36;;;;;;;95.67;61.03;;;5.40;87.20;;;;;;5072313;28;20106;-78
2021/01/01 03:04:02;;;;;;;93.07;58.17;;;5.30;87.20;;;;;;5072806;28;20199;-78
2021/01/01 03:06:28;;;;;;;93.77;57.10;;;5.40;87.30;;;;;;5071034;28;20130;-77
2021/01/01 03:08:53;;;;;;;95.17;57.67;;;5.40;87.20;;;;;;5037338;28;20032;-76
2021/01/01 03:11:22;;;;;;;86.13;54.57;;;5.40;87.30;;;;;;5051626;28;20063;-76
2021/01/01 03:13:48;;;;;;;94.37;55.97;;;5.40;87.00;;;;;;5051308;28;20070;-76
2021/01/01 03:16:13;;;;;;;87.77;55.87;;;5.30;86.80;;;;;;5054845;28;20385;-76
2021/01/01 03:18:39;;;;;;;89.97;57.87;;;5.20;86.70;;;;;;5047940;28;20119;-76
2021/01/01 03:21:04;;;;;;;96.27;58.80;;;5.20;87.00;;;;;;5071671;28;20040;-76
2021/01/01 03:23:30;;;;;;;98.30;60.73;;;5.20;87.20;;;;;;5072187;28;20074;-76
2021/01/01 03:25:56;;;;;;;96.13;60.13;;;5.20;87.10;;;;;;5071645;28;20477;-76
2021/01/01 03:28:21;;;;;;;99.13;60.43;;;5.20;87.10;;;;;;5085261;28;20028;-76
2021/01/01 03:30:47;;;;;;;101.77;61.77;;;5.20;87.30;;;;;;5079633;28;20047;-76
2021/01/01 03:33:13;;;;;;;104.17;64.40;;;5.20;87.30;;;;;;5076751;28;20028;-79
2021/01/01 03:35:39;;;;;;;97.70;59.50;;;5.10;87.00;;;;;;5093804;28;20078;-78
2021/01/01 03:38:05;;;;;;;102.83;64.70;;;5.10;87.10;;;;;;5056070;28;20031;-79
2021/01/01 03:40:31;;;;;;;97.43;59.83;;;5.10;87.20;;;;;;5075665;28;20032;-78
2021/01/01 03:42:57;;;;;;;100.60;58.53;;;5.10;87.10;;;;;;5077974;28;20506;-78
2021/01/01 03:45:22;;;;;;;95.90;58.77;;;5.00;87.30;;;;;;5079769;28;20496;-78
2021/01/01 03:47:48;;;;;;;98.17;58.67;;;5.00;87.40;;;;;;5075146;28;20048;-78
2021/01/01 03:50:14;;;;;;;100.07;59.20;;;5.00;87.30;;;;;;5071345;28;20044;-77
2021/01/01 03:52:39;;;;;;;99.93;60.50;;;5.00;87.30;;;;;;5070843;28;20052;-77
2021/01/01 03:55:06;;;;;;;94.07;58.50;;;5.00;87.40;;;;;;5072238;28;20105;-77
2021/01/01 03:57:31;;;;;;;93.67;57.90;;;5.00;87.40;;;;;;5052617;28;20048;-77
2021/01/01 03:59:57;;;;;;;96.07;57.67;;;5.00;87.30;;;;;;5072388;28;20391;-77
2021/01/01 04:02:23;;;;;;;95.17;59.03;;;4.90;87.20;;;;;;5070844;28;20016;-77
2021/01/01 04:04:48;;;;;;;97.17;58.30;;;5.00;87.70;;;;;;5053356;28;20025;-77
2021/01/01 04:07:14;;;;;;;97.03;59.63;;;5.00;87.80;;;;;;5054483;28;20039;-77
2021/01/01 04:09:40;;;;;;;95.77;58.17;;;5.10;87.90;;;;;;5050885;28;20030;-77
2021/01/01 04:12:06;;;;;;;98.77;58.73;;;5.10;87.80;;;;;;5052941;28;20032;-77
2021/01/01 04:14:32;;;;;;;99.83;59.13;;;5.10;87.70;;;;;;5070998;28;20048;-77
2021/01/01 04:16:57;;;;;;;98.27;57.50;;;5.00;87.40;;;;;;5053732;28;20032;-77
2021/01/01 04:19:23;;;;;;;101.50;60.13;;;5.00;87.40;;;;;;5053485;28;20056;-77
2021/01/01 04:21:49;;;;;;;104.97;59.57;;;5.00;87.70;;;;;;5053094;28;20097;-77
2021/01/01 04:24:16;;;;;;;103.07;62.30;;;5.00;87.60;;;;;;5053682;28;20481;-77
2021/01/01 04:26:42;;;;;;;97.73;59.77;;;5.00;87.70;;;;;;5052860;28;20028;-78
2021/01/01 04:29:09;;;;;;;109.83;60.20;;;5.00;87.70;;;;;;5040104;28;20040;-78
2021/01/01 04:31:36;;;;;;;107.77;62.87;;;5.00;87.70;;;;;;5047884;28;20025;-77
2021/01/01 04:34:02;;;;;;;103.43;62.40;;;5.00;87.90;;;;;;5068332;28;20124;-78
2021/01/01 04:36:28;;;;;;;98.93;60.90;;;5.00;88.00;;;;;;5052801;28;20027;-77
2021/01/01 04:38:54;;;;;;;100.97;61.53;;;5.00;88.00;;;;;;5070869;28;20033;-78
2021/01/01 04:41:20;;;;;;;105.20;60.00;;;5.00;88.00;;;;;;5069917;28;20178;-78
2021/01/01 04:43:50;;;;;;;99.60;60.50;;;5.00;88.30;;;;;;5051950;28;20320;-79
2021/01/01 04:46:17;;;;;;;99.03;59.30;;;5.10;88.20;;;;;;5069493;28;20023;-78
2021/01/01 04:48:46;;;;;;;94.30;57.53;;;5.10;88.30;;;;;;5070221;28;20024;-77
2021/01/01 04:51:12;;;;;;;98.57;59.30;;;5.10;88.20;;;;;;5069168;28;20039;-78
2021/01/01 04:53:40;;;;;;;100.23;59.23;;;5.10;88.00;;;;;;5069737;28;20037;-78
2021/01/01 04:56:07;;;;;;;96.57;58.97;;;5.00;87.90;;;;;;5065624;28;20057;-78
2021/01/01 04:58:34;;;;;;;100.27;61.00;;;5.00;87.90;;;;;;5052045;28;20040;-77
2021/01/01 05:01:00;;;;;;;105.93;61.60;;;5.00;88.10;;;;;;5053057;28;20106;-78
2021/01/01 05:03:27;;;;;;;107.30;62.30;;;4.90;88.00;;;;;;5052636;28;20658;-78
2021/01/01 05:05:53;;;;;;;99.57;60.33;;;4.90;88.00;;;;;;5057627;28;20530;-77
2021/01/01 05:08:20;;;;;;;103.27;61.13;;;4.90;87.90;;;;;;5070419;28;20071;-77
2021/01/01 05:10:46;;;;;;;104.50;61.77;;;4.80;87.90;;;;;;5051621;28;20528;-77
2021/01/01 05:13:14;;;;;;;110.23;64.20;;;4.80;87.90;;;;;;5070449;28;20036;-77
2021/01/01 05:15:41;;;;;;;109.67;64.10;;;4.80;87.80;;;;;;5070621;28;20476;-77
2021/01/01 05:18:20;;;;;;;108.83;64.93;;;4.80;88.20;;;;;;5052429;28;20130;-77
2021/01/01 05:20:47;;;;;;;116.43;66.10;;;4.80;88.20;;;;;;5051326;28;20048;-77
2021/01/01 05:23:26;;;;;;;116.33;69.97;;;4.80;88.20;;;;;;5070714;28;20179;-77
2021/01/01 05:26:08;;;;;;;110.73;66.53;;;4.80;88.10;;;;;;5069405;28;20198;-77
2021/01/01 05:28:54;;;;;;;112.10;65.40;;;4.80;88.10;;;;;;5068176;28;20502;-77
2021/01/01 05:31:25;;;;;;;111.33;67.30;;;4.80;88.20;;;;;;5068555;28;20043;-78
2021/01/01 05:33:57;;;;;;;116.90;69.00;;;4.80;88.30;;;;;;5072763;28;20040;-78
2021/01/01 05:36:35;;;;;;;113.47;67.10;;;4.80;88.80;;;;;;5074360;28;20089;-77
2021/01/01 05:39:06;;;;;;;123.60;70.97;;;4.80;88.60;;;;;;5069531;28;20034;-78
2021/01/01 05:41:36;;;;;;;118.33;69.70;;;4.80;88.60;;;;;;5057236;28;20108;-76
2021/01/01 05:44:13;;;;;;;117.80;70.57;;;4.90;88.70;;;;;;5074885;28;20044;-78
2021/01/01 05:46:56;;;;;;;117.93;69.57;;;4.90;88.70;;;;;;5056587;28;20115;-77
2021/01/01 05:49:24;;;;;;;121.18;71.13;;;4.90;88.60;;;;;;5074919;28;20044;-77
2021/01/01 05:52:12;;;;;;;117.20;68.90;;;4.80;88.30;;;;;;5073473;28;20058;-78
2021/01/01 05:54:46;;;;;;;117.37;69.87;;;4.90;88.60;;;;;;5055453;28;20544;-78
2021/01/01 05:57:13;;;;;;;117.17;69.17;;;4.90;88.60;;;;;;5074956;28;20081;-78
2021/01/01 05:59:46;;;;;;;115.50;69.53;;;4.90;88.50;;;;;;5072806;28;20068;-77
2021/01/01 06:02:12;;;;;;;;;;;4.80;88.40;;;;;;5041053;28;20440;-77
2021/01/01 06:04:39;;;;;;;115.57;64.87;;;4.80;88.40;;;;;;5073881;28;19908;-77
2021/01/01 06:07:09;;;;;;;111.33;64.33;;;4.80;88.50;;;;;;5036757;28;20029;-78
2021/01/01 06:09:36;;;;;;;112.87;65.67;;;4.80;88.50;;;;;;5036141;28;20365;-76
2021/01/01 06:12:08;;;;;;;111.37;64.83;;;4.90;88.70;;;;;;5036732;28;20477;-78
2021/01/01 06:14:42;;;;;;;111.32;62.97;;;4.90;88.70;;;;;;5055562;28;20492;-76
2021/01/01 06:17:11;;;;;;;103.03;61.97;;;4.90;88.60;;;;;;5065671;28;20380;-78
2021/01/01 06:19:45;;;;;;;104.87;60.53;;;4.90;88.40;;;;;;5055087;28;20040;-77
2021/01/01 06:22:17;;;;;;;105.20;60.03;;;4.90;88.30;;;;;;5073993;28;20032;-78
2021/01/01 06:24:47;;;;;;;101.00;59.75;;;4.90;88.30;;;;;;5055041;28;20107;-77
2021/01/01 06:27:13;;;;;;;100.57;57.70;;;4.90;88.30;;;;;;5074109;28;20468;-78
2021/01/01 06:29:50;;;;;;;101.50;58.77;;;4.90;88.10;;;;;;5073260;28;20052;-77
2021/01/01 06:32:19;;;;;;;102.10;59.50;;;4.90;88.00;;;;;;5074070;28;20025;-76
2021/01/01 06:34:44;;;;;;;106.63;59.40;;;4.80;88.00;;;;;;5071629;28;20469;-78
2021/01/01 06:37:41;;;;;;;99.00;57.33;;;4.80;88.00;;;;;;5071967;28;20039;-79
2021/01/01 06:40:22;;;;;;;94.70;56.07;;;4.80;88.10;;;;;;5072730;28;20199;-77
2021/01/01 06:43:01;;;;;;;100.57;57.13;;;4.80;88.40;;;;;;5071614;28;20028;-76
2021/01/01 06:45:30;;;;;;;99.10;56.97;;;4.80;88.20;;;;;;5058446;28;20032;-77
2021/01/01 06:47:56;;;;;;;94.20;54.90;;;4.80;88.10;;;;;;5072875;28;20098;-79
2021/01/01 06:50:36;;;;;;;91.37;54.67;;;4.80;88.10;;;;;;5073500;28;20793;-78
2021/01/01 06:53:07;;;;;;;91.37;52.67;;;4.70;88.00;;;;;;5072956;28;20032;-77
2021/01/01 06:55:51;;;;;;;90.40;52.73;;;4.80;88.20;;;;;;5058510;28;20106;-78
2021/01/01 06:58:26;;;;;;;88.50;52.20;;;4.80;88.20;;;;;;5072391;28;20419;-77
2021/01/01 07:00:52;;;;;;;90.93;52.37;;;4.90;88.20;;;;;;5071467;28;20064;-77
2021/01/01 07:03:30;;;;;;;90.97;51.53;;;4.90;88.20;;;;;;5073390;28;20115;-77
2021/01/01 07:06:02;;;;;;;88.40;52.17;;;4.90;88.10;;;;;;5072257;28;20024;-78
2021/01/01 07:08:42;;;;;;;85.53;50.30;;;4.90;88.20;;;;;;5072140;28;20029;-77
2021/01/01 07:11:08;;;;;;;82.37;49.03;;;4.90;88.30;;;;;;5073584;28;20021;-78
2021/01/01 07:13:53;;;;;;;81.90;48.63;;;4.90;88.20;;;;;;5073295;28;20037;-78
2021/01/01 07:16:20;;;;;;;82.60;48.90;;;4.80;88.20;;;;;;5062169;28;20024;-77
2021/01/01 07:18:47;;;;;;;81.13;47.63;;;4.80;88.60;;;;;;5053822;28;20039;-76
2021/01/01 07:21:15;;;;;;;82.77;48.63;;;4.80;88.20;;;;;;5054822;28;20119;-77
2021/01/01 07:23:45;;;;;;;78.63;46.03;;;4.80;88.10;;;;;;5072304;28;20040;-78
2021/01/01 07:26:12;;;;;;;84.77;47.90;;;4.80;88.00;;;;;;5058068;28;20393;-77
2021/01/01 07:28:42;;;;;;;79.77;45.40;;;4.90;88.20;;;;;;5056674;28;20112;-76
2021/01/01 07:31:11;;;;;;;80.20;46.07;;;4.90;88.20;;;;;;5075815;28;20021;-77
2021/01/01 07:33:39;;;;;;;78.43;45.77;;;5.00;88.30;;;;;;5055629;28;20033;-76
2021/01/01 07:36:06;;;;;;;74.30;43.83;;;5.00;88.30;;;;;;5054307;28;20033;-76
2021/01/01 07:38:34;;;;;;;73.70;45.30;;;5.00;88.30;;;;;;5059145;28;20028;-76
2021/01/01 07:41:00;;;;;;;71.53;44.03;;;5.10;88.30;;;;;;5070109;28;20161;-76
2021/01/01 07:43:27;;;;;;;76.73;43.40;;;5.00;88.10;;;;;;5072545;28;20053;-77
2021/01/01 07:45:57;;;;;;;75.33;43.20;;;5.00;88.00;;;;;;5071177;28;20060;-78
2021/01/01 07:48:23;;;;;;;73.50;41.77;;;5.00;88.10;;;;;;5037628;28;20109;-79
2021/01/01 07:50:49;;;;;;;69.87;40.63;;;5.00;88.10;;;;;;5071679;28;20090;-78
2021/01/01 07:53:15;;;;;;;71.27;39.73;;;5.00;88.20;;;;;;5054261;28;20120;-79
2021/01/01 07:55:41;;;;;;;72.60;39.97;;;4.90;88.00;;;;;;5069931;28;20044;-78
2021/01/01 07:58:15;;;;;;;68.73;39.13;;;5.00;89.40;;;;;;5053210;28;20032;-78
2021/01/01 08:00:45;;;;;;;67.20;39.47;;;5.10;89.00;;;;;;5053486;28;20024;-77
2021/01/01 08:03:13;;;;;;;62.27;37.40;;;5.20;88.90;;;;;;5070664;28;20035;-78
2021/01/01 08:05:44;;;;;;;67.47;38.30;;;5.20;88.80;;;;;;5071732;28;20159;-77
2021/01/01 08:08:13;;;;;;;64.57;38.57;;;5.20;88.70;;;;;;5069964;28;20036;-78
2021/01/01 08:10:40;;;;;;;66.33;38.43;;;5.20;88.40;;;;;;5071760;28;20158;-77
2021/01/01 08:13:14;;;;;;;63.77;38.93;;;5.20;88.40;;;;;;5055796;28;20037;-77
2021/01/01 08:15:42;;;;;;;69.10;39.70;;;5.10;87.60;;;;;;5054001;28;20380;-77
2021/01/01 08:18:15;;;;;;;69.43;41.27;;;5.00;88.00;;;;;;5071738;28;20075;-78
2021/01/01 08:20:42;;;;;;;72.05;42.83;;;5.00;88.30;;;;;;5045900;28;20031;-77
2021/01/01 08:23:10;;;;;;;71.60;41.20;;;5.00;88.10;;;;;;5055815;28;20484;-78
2021/01/01 08:25:37;;;;;;;78.20;44.43;;;5.00;88.20;;;;;;5054497;28;20021;-79
2021/01/01 08:28:05;;;;;;;78.83;44.80;;;5.00;88.00;;;;;;5051322;28;20029;-78
2021/01/01 08:30:34;;;;;;;79.60;46.80;;;5.00;88.10;;;;;;5054499;28;20020;-79
2021/01/01 08:33:00;;;;;;;74.53;43.10;;;5.00;88.10;;;;;;5060225;28;20841;-79
2021/01/01 08:35:26;;;;;;;79.03;45.40;;;5.00;87.90;;;;;;5065513;28;20075;-78
2021/01/01 08:37:52;;;;;;;82.10;45.93;;;4.90;87.60;;;;;;5052772;28;20040;-78
2021/01/01 08:40:18;;;;;;;84.00;46.87;;;4.90;87.80;;;;;;5064893;28;20025;-78
2021/01/01 08:42:43;;;;;;;80.27;47.87;;;4.80;87.60;;;;;;5070255;28;20039;-78
2021/01/01 08:45:11;;;;;;;80.63;45.50;;;4.80;87.70;;;;;;5071523;28;20056;-78
2021/01/01 08:47:50;;;;;;;88.60;48.17;;;4.80;87.90;;;;;;5071819;28;20104;-77
2021/01/01 08:50:21;;;;;;;83.30;46.37;;;4.80;88.30;;;;;;5072067;28;20453;-77
2021/01/01 08:52:49;;;;;;;84.17;47.43;;;4.90;88.40;;;;;;5052182;28;20067;-79
2021/01/01 08:55:15;;;;;;;86.80;49.53;;;5.00;88.30;;;;;;5052351;28;20052;-79
2021/01/01 08:57:41;;;;;;;88.43;49.80;;;5.00;88.30;;;;;;5053273;28;20051;-79
2021/01/01 09:00:08;;;;;;;75.40;43.83;;;5.00;88.30;;;;;;5052942;28;20017;-80
2021/01/01 09:02:34;;;;;;;81.97;47.00;;;5.10;88.00;;;;;;5053460;28;20056;-78
2021/01/01 09:05:01;;;;;;;90.17;51.00;;;5.00;87.90;;;;;;5052620;28;20085;-78
2021/01/01 09:07:26;;;;;;;92.37;52.70;;;5.00;88.00;;;;;;5052718;28;20038;-80
2021/01/01 09:09:52;;;;;;;82.20;47.33;;;5.10;88.40;;;;;;5052527;28;20543;-79
2021/01/01 09:12:21;;;;;;;80.83;48.67;;;5.10;88.40;;;;;;5071553;28;20082;-80
2021/01/01 09:14:55;;;;;;;85.83;49.23;;;5.10;88.00;;;;;;5069516;28;20048;-79
2021/01/01 09:17:22;;;;;;;81.67;49.33;;;5.10;88.10;;;;;;5053138;28;20123;-80
2021/01/01 09:19:59;;;;;;;76.50;45.27;;;5.20;88.20;;;;;;5070199;28;20064;-79
2021/01/01 09:22:25;;;;;;;84.63;48.77;;;5.20;87.70;;;;;;5069918;28;20056;-80
2021/01/01 09:24:51;;;;;;;83.87;48.47;;;5.10;87.60;;;;;;5070815;28;20067;-78
2021/01/01 09:27:22;;;;;;;81.33;47.07;;;5.20;87.90;;;;;;5053646;28;20056;-79
2021/01/01 09:29:48;;;;;;;79.90;48.10;;;5.10;87.80;;;;;;5058197;28;20111;-78
2021/01/01 09:32:14;;;;;;;89.07;50.57;;;5.10;87.70;;;;;;5053230;28;20128;-79
2021/01/01 09:34:39;;;;;;;89.27;49.23;;;5.00;87.90;;;;;;5053085;28;20483;-78
2021/01/01 09:37:10;;;;;;;89.07;50.83;;;5.10;88.00;;;;;;5052493;28;20012;-78
2021/01/01 09:39:36;;;;;;;90.13;51.67;;;5.10;88.00;;;;;;5061582;28;20036;-78
2021/01/01 09:42:01;;;;;;;88.93;50.87;;;5.10;88.10;;;;;;5068994;28;20400;-78
2021/01/01 09:44:27;;;;;;;93.53;52.00;;;5.20;88.30;;;;;;5037334;28;20032;-78
2021/01/01 09:46:53;;;;;;;89.67;53.50;;;5.30;88.40;;;;;;5070149;28;20081;-79
2021/01/01 09:49:19;;;;;;;88.33;50.13;;;5.30;88.60;;;;;;5054730;28;20040;-78
2021/01/01 09:51:45;;;;;;;85.17;51.23;;;5.40;88.50;;;;;;5071027;28;20037;-76
2021/01/01 09:54:10;;;;;;;92.53;53.97;;;5.50;88.50;;;;;;5069928;28;20068;-79
2021/01/01 09:56:37;;;;;;;87.47;49.03;;;5.50;88.40;;;;;;5049994;28;20025;-79
2021/01/01 09:59:03;;;;;;;88.17;49.87;;;5.50;88.40;;;;;;5052760;28;20113;-80
2021/01/01 10:01:30;;;;;;;82.50;49.27;;;5.50;88.20;;;;;;5063845;28;20029;-78
2021/01/01 10:03:56;;;;;;;84.07;48.23;;;5.40;88.00;;;;;;5070999;28;20468;-78
2021/01/01 10:06:22;;;;;;;77.60;45.77;;;5.50;88.20;;;;;;5052537;28;20040;-78
2021/01/01 10:08:47;;;;;;;78.33;46.93;;;5.50;88.00;;;;;;5070486;28;20030;-78
2021/01/01 10:11:14;;;;;;;74.33;43.87;;;5.60;88.00;;;;;;5054882;28;20025;-79
2021/01/01 10:13:40;;;;;;;71.57;43.67;;;5.60;87.80;;;;;;5054956;28;20037;-78
2021/01/01 10:16:09;;;;;;;78.83;45.27;;;5.70;87.50;;;;;;5054132;28;20040;-79
2021/01/01 10:18:39;;;;;;;69.80;41.57;;;5.60;87.10;;;;;;5039658;28;20036;-79
2021/01/01 10:21:05;;;;;;;77.93;45.10;;;5.60;87.00;;;;;;5059879;28;20028;-78
2021/01/01 10:23:30;;;;;;;80.77;45.53;;;5.50;86.80;;;;;;5059663;28;20029;-78
2021/01/01 10:25:56;;;;;;;70.73;41.80;;;5.50;87.20;;;;;;5075063;28;20029;-78
2021/01/01 10:28:22;;;;;;;76.53;45.43;;;5.60;87.20;;;;;;5075418;28;20025;-79
2021/01/01 10:30:47;;;;;;;68.43;41.93;;;5.60;87.20;;;;;;5069332;28;20043;-79
2021/01/01 10:33:13;;;;;;;73.30;42.00;;;5.60;87.20;;;;;;5072414;28;20118;-80
2021/01/01 10:35:39;;;;;;;70.43;41.57;;;5.60;86.80;;;;;;5072868;28;20036;-80
2021/01/01 10:38:07;;;;;;;79.53;43.53;;;5.60;87.00;;;;;;5065243;28;20040;-80
2021/01/01 10:40:33;;;;;;;75.90;44.40;;;5.60;87.00;;;;;;5076019;28;20052;-79
2021/01/01 10:42:59;;;;;;;69.83;42.93;;;5.70;87.00;;;;;;5057262;28;20074;-80
2021/01/01 10:45:24;;;;;;;72.50;40.13;;;5.70;87.00;;;;;;5076262;28;20111;-79
2021/01/01 10:47:50;;;;;;;66.63;40.00;;;5.70;86.80;;;;;;5059549;28;20039;-77
2021/01/01 10:50:16;;;;;;;72.40;43.03;;;5.70;86.80;;;;;;5067570;28;20120;-79
2021/01/01 10:52:42;;;;;;;69.37;41.07;;;5.70;86.80;;;;;;5073620;28;20028;-79
2021/01/01 10:55:08;;;;;;;78.67;45.73;;;5.80;86.90;;;;;;5072023;28;20056;-79
2021/01/01 10:57:33;;;;;;;75.47;44.77;;;5.90;87.30;;;;;;5073154;28;20442;-79
2021/01/01 10:59:59;;;;;;;74.30;41.87;;;6.00;87.30;;;;;;5046021;28;20029;-79
2021/01/01 11:02:25;;;;;;;74.07;44.63;;;6.00;86.50;;;;;;5053100;28;20032;-79
2021/01/01 11:04:50;;;;;;;72.20;44.37;;;6.00;86.30;;;;;;5052457;28;20025;-77
2021/01/01 11:07:16;;;;;;;73.53;42.27;;;6.00;86.50;;;;;;5066169;28;20033;-78
2021/01/01 11:09:41;;;;;;;76.43;45.97;;;6.00;86.30;;;;;;5088814;28;20020;-79
2021/01/01 11:12:08;;;;;;;75.93;46.37;;;6.10;86.40;;;;;;5090023;28;20020;-79
2021/01/01 11:15:23;;;;;;;74.17;44.70;;;6.10;86.30;;;;;;5057308;28;20537;-78
2021/01/01 12:26:14;;;;;;;69.33;42.27;;;6.80;84.10;;;;;;4973281;28;19906;-80
2021/01/01 12:28:41;;;;;;;66.17;41.70;;;6.90;84.00;;;;;;5008367;28;20036;-80
2021/01/01 12:31:09;;;;;;;66.53;41.33;;;6.90;83.70;;;;;;5071499;28;20033;-79
2021/01/01 12:33:34;;;;;;;65.23;41.23;;;7.00;83.70;;;;;;5053904;28;20052;-79
2021/01/01 12:36:00;;;;;;;66.43;41.07;;;7.10;83.40;;;;;;5052755;28;20024;-80
2021/01/01 12:38:25;;;;;;;59.83;38.07;;;7.20;83.40;;;;;;5053204;28;20105;-79
2021/01/01 12:40:51;;;;;;;61.40;39.43;;;7.20;82.90;;;;;;5053492;28;20036;-79
2021/01/01 12:43:17;;;;;;;60.13;36.13;;;7.20;82.90;;;;;;5069163;28;20043;-80
2021/01/01 12:45:44;;;;;;;54.20;34.57;;;7.20;83.00;;;;;;5050026;28;20039;-79
2021/01/01 12:48:10;;;;;;;46.47;29.83;;;7.20;82.70;;;;;;5052951;28;20056;-80
2021/01/01 12:50:35;;;;;;;45.87;30.93;;;7.10;82.00;;;;;;5069807;28;20507;-78
2021/01/01 12:53:01;;;;;;;45.80;28.73;;;7.00;82.10;;;;;;5052305;28;20044;-80
2021/01/01 12:55:27;;;;;;;56.23;33.53;;;6.90;82.00;;;;;;5069776;28;20382;-79
2021/01/01 12:57:53;;;;;;;49.10;31.80;;;6.90;82.00;;;;;;5052430;28;20078;-79
2021/01/01 13:00:19;;;;;;;53.50;34.87;;;6.80;82.60;;;;;;5052576;28;20907;-78
2021/01/01 13:02:45;;;;;;;45.00;31.27;;;6.80;82.90;;;;;;5053468;28;20074;-78
2021/01/01 13:05:12;;;;;;;53.03;34.23;;;6.80;82.10;;;;;;5069185;28;20111;-79
2021/01/01 13:07:38;;;;;;;50.93;32.63;;;6.70;82.00;;;;;;5070231;28;20033;-78
2021/01/01 13:10:07;;;;;;;57.27;36.00;;;6.90;82.60;;;;;;5053043;28;20107;-79
2021/01/01 13:12:33;;;;;;;46.57;29.63;;;7.00;82.50;;;;;;5070798;28;20464;-79
2021/01/01 13:14:58;;;;;;;50.03;32.93;;;6.90;82.00;;;;;;5075023;28;20059;-78
2021/01/01 13:17:26;;;;;;;47.03;30.40;;;7.00;82.40;;;;;;5037102;28;20040;-79
2021/01/01 13:19:52;;;;;;;43.57;29.57;;;7.10;82.40;;;;;;5049464;28;20124;-80
2021/01/01 13:22:17;;;;;;;43.93;29.57;;;7.10;82.00;;;;;;5068498;28;20044;-80
2021/01/01 13:24:43;;;;;;;42.23;28.40;;;7.10;81.80;;;;;;5050541;28;20074;-79
2021/01/01 13:27:08;;;;;;;39.23;27.50;;;7.20;81.50;;;;;;5051715;28;20035;-80
2021/01/01 13:29:34;;;;;;;41.40;28.57;;;7.30;81.50;;;;;;5044072;28;20040;-80
2021/01/01 13:32:00;;;;;;;35.03;25.53;;;7.40;81.20;;;;;;5036137;28;20411;-77
2021/01/01 13:34:25;;;;;;;40.33;26.17;;;7.40;80.40;;;;;;5070771;28;20449;-80
2021/01/01 13:36:53;;;;;;;41.50;28.63;;;7.30;79.80;;;;;;5019732;28;20420;-79
2021/01/01 13:39:19;;;;;;;36.67;24.80;;;7.30;80.50;;;;;;5054442;28;20622;-79
2021/01/01 13:41:45;;;;;;;40.03;27.37;;;7.30;80.20;;;;;;5076709;28;20029;-78
2021/01/01 13:44:11;;;;;;;41.60;28.93;;;7.30;80.30;;;;;;5078659;28;20164;-78
2021/01/01 13:46:37;;;;;;;44.63;29.50;;;7.20;80.20;;;;;;5077096;28;20364;-79
2021/01/01 13:49:05;;;;;;;45.63;32.07;;;7.30;80.90;;;;;;5045611;28;20579;-78